Aérodrome :
LOGIN :

S'inscrire | Disclaimer

   EN    FR    IT 

 










Légende :    VFR   VFR Marginal   IFR   IFR Intensif   IFR Très Intensif
Visi : 
Plafond : 
>= 8 km
>= 3000ft
5 à 8 km
1000 à 3000 ft
1500m à 5 km
500 à 1000 ft
800 à 1500m
200 à 500 ft
< 800m
< 200 ft
Symboles :   Orages  Brouillard  Fortes neiges  Fortes précipitations  Vent > 20 kt
SIGMETs :   Divers  Orages  Givrage  Turbulence  Onde Orograph.  Cendres Volcan.






- Altitude de l'aérodrome : 220 ft
- Code IATA : CWL


EGFF - Cardiff Rhoose

DERNIER METAR :
  • 220120Z AUTO 25021G33KT 9999 OVC014 09/07 Q1016

METARs EXPIRÉS :
  • 220020Z AUTO 25023G35KT 9999 OVC018 09/07 Q1017
  • 212250Z AUTO 25019KT 9999 OVC020 09/07 Q1017

TAF TAF EGFF
Valide du 21 à 18h jusqu'au 22 à 18h UTC


211658Z 2118/2218 25020G30KT 9999 BKN030
TEMPO 2118/2203 26030G40KT
BECMG 2120/2123 BKN012
TEMPO 2122/2208 4000 RA BKN004
BECMG 2203/2206 26025G40KT
BECMG 2206/2209 FEW012 SCT026
BECMG 2212/2215 26020G30KT
BECMG 2215/2218 BKN012
TEMPO 2215/2218 6000 RA BKN008
ATIS : +44 1446 729 319



MET'MAP, la Météo Aéronautique d'un coup d'oeil ! - Copyright ORBIFLY Décembre 2007 - Disclaimer

ORBIFLY MET'MAP TEAM :

Programmation & Développement : Alexandra Zaïnal
Sur une idée originale de : Baudouin d'Aumeries
Assistance à la programmation : Marc-Olivier Méhu
Soutien technique & logistique : Manuel Goepfert

Contact : metmap@orbifly.com




SOURCES & CREDITS :

   NOAA